createdAt,value
2022-12-16T00:01:26.078Z,49.73
2022-12-16T00:03:55.960Z,46.50
2022-12-16T00:06:26.427Z,51.33
2022-12-16T00:08:54.909Z,48.70
2022-12-16T00:11:23.210Z,45.50
2022-12-16T00:13:52.679Z,47.43
2022-12-16T00:16:23.049Z,44.90
2022-12-16T00:18:51.754Z,43.70
2022-12-16T00:21:20.643Z,46.00
2022-12-16T00:23:49.000Z,43.17
2022-12-16T00:26:17.054Z,43.70
2022-12-16T00:28:45.126Z,47.23
2022-12-16T00:31:14.505Z,50.70
2022-12-16T00:33:42.782Z,49.07
2022-12-16T00:36:11.085Z,47.60
2022-12-16T00:38:39.317Z,47.90
2022-12-16T00:41:08.190Z,46.97
2022-12-16T00:43:36.392Z,45.20
2022-12-16T00:46:04.783Z,45.67
2022-12-16T00:48:34.247Z,45.83
2022-12-16T00:51:02.369Z,45.17
2022-12-16T00:53:30.776Z,43.97
2022-12-16T00:56:06.329Z,44.87
2022-12-16T00:58:34.364Z,43.17
2022-12-16T01:01:02.441Z,44.53
2022-12-16T01:03:30.912Z,45.77
2022-12-16T01:06:00.407Z,43.37
2022-12-16T01:08:28.497Z,43.17
2022-12-16T01:10:58.051Z,48.17
2022-12-16T01:13:26.929Z,44.30
2022-12-16T01:15:55.006Z,41.17
2022-12-16T01:18:23.084Z,44.13
2022-12-16T01:20:51.326Z,45.33
2022-12-16T01:23:21.123Z,45.90
2022-12-16T01:25:53.069Z,44.97
2022-12-16T01:28:21.034Z,47.90
2022-12-16T01:30:49.002Z,43.63
2022-12-16T01:33:18.063Z,46.50
2022-12-16T01:35:55.306Z,44.27
2022-12-16T01:38:25.464Z,42.60
2022-12-16T01:40:55.000Z,42.13
2022-12-16T01:43:26.996Z,42.23
2022-12-16T01:45:59.737Z,44.73
2022-12-16T01:48:36.575Z,46.03
2022-12-16T01:51:08.000Z,44.87
2022-12-16T01:53:40.669Z,45.47
2022-12-16T01:56:09.666Z,40.43
2022-12-16T01:58:40.660Z,45.77
2022-12-16T02:01:09.132Z,42.23
2022-12-16T02:03:39.731Z,44.77
2022-12-16T02:06:08.794Z,43.37
2022-12-16T02:08:38.216Z,43.67
2022-12-16T02:11:37.486Z,43.00
2022-12-16T02:14:24.303Z,47.40
2022-12-16T02:16:57.682Z,45.47
2022-12-16T02:19:59.443Z,41.10
2022-12-16T02:22:38.990Z,44.97
2022-12-16T02:25:31.903Z,42.90
2022-12-16T02:28:05.942Z,43.80
2022-12-16T02:30:58.670Z,42.30
2022-12-16T02:33:44.998Z,43.87
2022-12-16T02:36:23.173Z,43.13
2022-12-16T02:38:57.946Z,43.50
2022-12-16T02:41:32.479Z,44.73
2022-12-16T02:44:04.238Z,45.57
2022-12-16T02:46:39.240Z,43.43
2022-12-16T02:49:08.706Z,43.50
2022-12-16T02:51:38.182Z,42.27
2022-12-16T02:54:09.191Z,46.00
2022-12-16T02:56:49.927Z,43.97
2022-12-16T02:59:25.770Z,43.10
2022-12-16T03:02:00.006Z,43.83
2022-12-16T03:04:38.007Z,43.73
2022-12-16T03:07:08.833Z,45.30
2022-12-16T03:09:39.286Z,46.87
2022-12-16T03:12:11.570Z,44.77
2022-12-16T03:14:43.234Z,45.63
2022-12-16T03:17:14.029Z,44.10
2022-12-16T03:19:46.077Z,49.33
2022-12-16T03:22:18.981Z,44.30
2022-12-16T03:24:47.855Z,45.13
2022-12-16T03:27:20.715Z,46.90
2022-12-16T03:30:04.573Z,48.53
2022-12-16T03:32:39.470Z,45.03
2022-12-16T03:35:14.526Z,45.83
2022-12-16T03:37:44.333Z,48.93
2022-12-16T03:40:13.967Z,47.77
2022-12-16T03:42:43.768Z,45.30
2022-12-16T03:45:16.830Z,43.50
2022-12-16T03:47:49.891Z,44.83
2022-12-16T03:50:18.831Z,47.60
2022-12-16T03:52:46.810Z,47.67
2022-12-16T03:55:15.005Z,43.33
2022-12-16T03:57:43.031Z,43.17
2022-12-16T04:00:12.428Z,50.47
2022-12-16T04:02:40.880Z,46.03
2022-12-16T04:05:11.460Z,43.63
2022-12-16T04:07:39.501Z,47.43
2022-12-16T04:10:08.537Z,47.27
2022-12-16T04:12:54.471Z,47.93
2022-12-16T04:15:40.306Z,49.87
2022-12-16T04:18:33.554Z,54.13
2022-12-16T04:21:21.266Z,49.87
2022-12-16T04:24:10.004Z,51.80
2022-12-16T04:26:51.898Z,54.60
2022-12-16T04:29:19.918Z,49.57
2022-12-16T04:31:47.961Z,49.80
2022-12-16T04:34:27.399Z,52.83
2022-12-16T04:37:27.507Z,54.07
2022-12-16T04:40:13.545Z,48.60
2022-12-16T04:42:58.991Z,45.60
2022-12-16T04:45:44.414Z,54.93
2022-12-16T04:48:29.929Z,53.37
2022-12-16T04:51:15.452Z,66.83
2022-12-16T04:54:02.641Z,63.87
2022-12-16T04:56:48.481Z,59.40
2022-12-16T04:59:34.167Z,59.27
2022-12-16T05:02:19.908Z,66.17
2022-12-16T05:05:05.691Z,91.27
2022-12-16T05:07:51.382Z,88.97
2022-12-16T05:10:49.677Z,71.00
2022-12-16T05:13:35.549Z,96.00
2022-12-16T05:16:21.327Z,86.20
2022-12-16T05:19:07.161Z,95.27
2022-12-16T05:21:54.344Z,121.50
2022-12-16T05:24:41.086Z,84.80
2022-12-16T05:27:31.506Z,135.37
2022-12-16T05:33:27.709Z,111.30
2022-12-16T05:36:13.807Z,125.27
2022-12-16T05:38:59.442Z,124.07
2022-12-16T05:41:45.439Z,122.43
2022-12-16T05:44:32.918Z,153.87
2022-12-16T05:47:18.534Z,124.70
2022-12-16T05:50:04.383Z,112.37
2022-12-16T05:52:50.487Z,85.70
2022-12-16T05:55:36.051Z,106.03
2022-12-16T05:58:22.365Z,95.93
2022-12-16T06:01:11.505Z,92.83
2022-12-16T06:03:57.115Z,81.20
2022-12-16T06:06:42.882Z,102.33
2022-12-16T06:09:28.498Z,71.20
2022-12-16T06:12:14.131Z,72.80
2022-12-16T06:15:01.927Z,78.10
2022-12-16T06:17:48.678Z,88.03
2022-12-16T06:20:34.620Z,79.67
2022-12-16T06:23:24.078Z,93.90
2022-12-16T06:26:11.155Z,95.10
2022-12-16T06:28:56.979Z,71.97
2022-12-16T06:31:42.887Z,83.40
2022-12-16T06:34:38.205Z,69.97
2022-12-16T06:37:23.711Z,78.53
2022-12-16T06:40:09.120Z,88.37
2022-12-16T06:42:58.748Z,96.80
2022-12-16T06:45:44.251Z,62.57
2022-12-16T06:48:30.271Z,79.20
2022-12-16T06:51:16.980Z,64.60
2022-12-16T06:54:02.606Z,77.50
2022-12-16T06:56:48.082Z,68.67
2022-12-16T06:59:33.786Z,77.67
2022-12-16T07:02:19.401Z,78.63
2022-12-16T07:05:07.181Z,81.93
2022-12-16T07:07:53.988Z,82.00
2022-12-16T07:10:39.263Z,84.97
2022-12-16T07:13:24.988Z,99.33
2022-12-16T07:16:10.667Z,78.83
2022-12-16T07:18:58.530Z,70.13
2022-12-16T07:21:43.855Z,69.23
2022-12-16T07:24:30.841Z,60.70
2022-12-16T07:27:16.440Z,51.70
2022-12-16T07:30:02.097Z,60.67
2022-12-16T07:32:47.497Z,66.33
2022-12-16T07:35:33.577Z,55.27
2022-12-16T07:38:18.862Z,61.97
2022-12-16T07:41:06.979Z,65.17
2022-12-16T07:43:52.866Z,52.90
2022-12-16T07:46:38.778Z,62.07
2022-12-16T07:49:24.443Z,58.83
2022-12-16T07:52:09.854Z,55.40
2022-12-16T07:54:55.114Z,55.77
2022-12-16T07:57:42.195Z,70.77
2022-12-16T08:00:29.447Z,54.63
2022-12-16T08:03:23.375Z,59.73
2022-12-16T08:06:09.040Z,71.73
2022-12-16T08:08:54.576Z,64.10
2022-12-16T08:11:40.139Z,69.53
2022-12-16T08:14:27.252Z,62.37
2022-12-16T08:17:13.118Z,59.80
2022-12-16T08:19:58.827Z,52.17
2022-12-16T08:22:44.244Z,54.57
2022-12-16T08:25:29.936Z,45.73
2022-12-16T08:28:15.975Z,68.60
2022-12-16T08:31:08.572Z,45.90
2022-12-16T08:33:54.543Z,65.77
2022-12-16T08:36:41.615Z,48.57
2022-12-16T08:39:27.307Z,53.63
2022-12-16T08:42:13.230Z,53.80
2022-12-16T08:44:58.773Z,48.80
2022-12-16T08:47:46.125Z,48.87
2022-12-16T08:50:31.662Z,60.73
2022-12-16T08:53:16.985Z,42.60
2022-12-16T08:56:02.895Z,44.67
2022-12-16T08:58:48.527Z,59.53
2022-12-16T09:01:34.288Z,56.07
2022-12-16T09:04:21.831Z,51.37
2022-12-16T09:07:07.236Z,60.60
2022-12-16T09:09:52.741Z,55.93
2022-12-16T09:12:38.194Z,45.83
2022-12-16T09:15:24.017Z,44.17
2022-12-16T09:18:12.947Z,49.43
2022-12-16T09:21:15.251Z,48.97
2022-12-16T09:24:00.761Z,47.93
2022-12-16T09:26:47.408Z,54.33
2022-12-16T09:29:33.283Z,51.73
2022-12-16T09:32:18.807Z,43.53
2022-12-16T09:35:10.061Z,50.13
2022-12-16T09:38:04.797Z,41.53
2022-12-16T09:40:50.731Z,48.50
2022-12-16T09:43:54.394Z,41.33
2022-12-16T09:46:46.688Z,47.37
2022-12-16T09:49:39.918Z,44.60
2022-12-16T09:52:33.137Z,48.73
2022-12-16T09:55:22.197Z,39.70
2022-12-16T09:58:08.637Z,45.37
2022-12-16T10:00:55.372Z,41.73
2022-12-16T10:03:56.886Z,47.30
2022-12-16T10:07:01.262Z,50.73
2022-12-16T10:09:51.109Z,42.30
2022-12-16T10:13:05.526Z,45.97
2022-12-16T10:15:56.834Z,50.20
2022-12-16T10:18:56.645Z,52.47
2022-12-16T10:21:51.700Z,52.73
2022-12-16T10:24:49.189Z,45.17
2022-12-16T10:27:37.314Z,42.90
2022-12-16T10:30:31.150Z,45.50
2022-12-16T10:33:18.139Z,48.70
2022-12-16T10:36:07.948Z,53.47
2022-12-16T10:38:58.359Z,48.27
2022-12-16T10:41:47.782Z,53.47
2022-12-16T10:44:41.868Z,38.90
2022-12-16T10:47:30.665Z,39.60
2022-12-16T10:50:17.775Z,43.90
2022-12-16T10:53:09.995Z,43.27
2022-12-16T10:56:08.132Z,40.57
2022-12-16T10:59:01.307Z,52.23
2022-12-16T11:01:47.660Z,43.27
2022-12-16T11:04:56.334Z,41.97
2022-12-16T11:07:46.022Z,42.10
2022-12-16T11:10:54.615Z,44.27
2022-12-16T11:13:44.896Z,38.67
2022-12-16T11:16:33.327Z,42.53
2022-12-16T11:19:19.645Z,37.77
2022-12-16T11:22:07.272Z,40.87
2022-12-16T11:24:53.804Z,35.33
2022-12-16T11:27:44.116Z,47.07
2022-12-16T11:30:37.297Z,43.10
2022-12-16T11:33:30.963Z,32.63
2022-12-16T11:36:32.505Z,37.80
2022-12-16T11:39:20.949Z,35.13
2022-12-16T11:42:08.769Z,34.83
2022-12-16T11:44:58.867Z,30.67
2022-12-16T11:47:54.272Z,33.07
2022-12-16T11:50:42.835Z,32.60
2022-12-16T11:53:44.221Z,32.60
2022-12-16T11:56:36.304Z,36.40
2022-12-16T11:59:30.338Z,34.70
2022-12-16T12:02:19.469Z,35.23
2022-12-16T12:05:07.666Z,32.23
2022-12-16T12:08:02.265Z,33.80
2022-12-16T12:11:11.026Z,32.83
2022-12-16T12:14:37.933Z,31.93
2022-12-16T12:17:35.998Z,35.57
2022-12-16T12:20:42.815Z,34.70
2022-12-16T12:23:30.601Z,31.27
2022-12-16T12:26:24.852Z,34.67
2022-12-16T12:29:21.610Z,31.83
2022-12-16T12:32:12.638Z,29.10
2022-12-16T12:35:04.820Z,26.83
2022-12-16T12:37:56.250Z,29.23
2022-12-16T12:40:57.958Z,28.43
2022-12-16T12:43:55.304Z,27.10
2022-12-16T12:46:52.343Z,26.43
2022-12-16T12:49:46.327Z,27.40
2022-12-16T12:52:42.201Z,28.43
2022-12-16T12:55:34.642Z,27.87
2022-12-16T12:58:21.940Z,27.90
2022-12-16T13:01:13.482Z,25.20
2022-12-16T13:04:03.102Z,25.87
2022-12-16T13:06:49.876Z,27.20
2022-12-16T13:09:47.837Z,29.50
2022-12-16T13:12:43.390Z,28.03
2022-12-16T13:15:36.632Z,25.13
2022-12-16T13:18:39.695Z,26.33
2022-12-16T13:22:06.524Z,23.77
2022-12-16T13:25:08.022Z,22.07
2022-12-16T13:28:12.946Z,25.07
2022-12-16T13:30:59.352Z,22.80
2022-12-16T13:33:49.780Z,24.10
2022-12-16T13:36:37.609Z,24.17
2022-12-16T13:39:44.001Z,24.73
2022-12-16T13:42:52.979Z,25.53
2022-12-16T13:45:50.321Z,20.77
2022-12-16T13:49:06.093Z,23.83
2022-12-16T13:52:33.326Z,24.77
2022-12-16T13:55:42.809Z,27.70
2022-12-16T13:58:38.149Z,26.03
2022-12-16T14:01:30.589Z,21.63
2022-12-16T14:04:18.225Z,18.90
2022-12-16T14:07:04.678Z,23.30
2022-12-16T14:10:09.679Z,20.80
2022-12-16T14:13:23.530Z,23.83
2022-12-16T14:16:18.542Z,20.43
2022-12-16T14:19:19.714Z,23.07
2022-12-16T14:22:09.271Z,22.57
2022-12-16T14:24:57.421Z,21.30
2022-12-16T14:27:44.250Z,19.03
2022-12-16T14:30:37.608Z,23.80
2022-12-16T14:33:40.611Z,22.53
2022-12-16T14:36:38.581Z,21.73
2022-12-16T14:39:29.145Z,21.07
2022-12-16T14:42:14.719Z,23.47
2022-12-16T14:45:03.942Z,21.50
2022-12-16T14:47:51.015Z,22.67
2022-12-16T14:50:44.449Z,21.10
2022-12-16T14:53:36.946Z,21.67
2022-12-16T14:56:36.366Z,20.90
2022-12-16T14:59:36.048Z,23.90
2022-12-16T15:02:41.157Z,19.50
2022-12-16T15:05:28.731Z,20.50
2022-12-16T15:08:14.817Z,22.17
2022-12-16T15:11:00.981Z,23.43
2022-12-16T15:13:47.311Z,18.73
2022-12-16T15:16:36.460Z,19.50
2022-12-16T15:19:23.547Z,21.90
2022-12-16T15:22:10.581Z,21.77
2022-12-16T15:24:57.689Z,19.63
2022-12-16T15:27:45.083Z,20.23
2022-12-16T15:30:50.381Z,19.07
2022-12-16T15:33:38.250Z,21.27
2022-12-16T15:36:25.160Z,17.40
2022-12-16T15:39:11.940Z,22.17
2022-12-16T15:41:57.746Z,18.13
2022-12-16T15:44:45.115Z,21.13
2022-12-16T15:47:40.188Z,19.80
2022-12-16T15:50:30.370Z,22.93
2022-12-16T15:53:34.071Z,19.57
2022-12-16T15:56:21.606Z,21.07
2022-12-16T15:59:07.508Z,24.27
2022-12-16T16:02:04.450Z,23.17
2022-12-16T16:04:51.040Z,22.97
2022-12-16T16:07:44.313Z,22.53
2022-12-16T16:10:43.828Z,21.87
2022-12-16T16:13:30.771Z,22.07
2022-12-16T16:16:16.906Z,21.70
2022-12-16T16:19:02.876Z,20.97
2022-12-16T16:21:48.995Z,22.10
2022-12-16T16:24:34.610Z,24.03
2022-12-16T16:27:22.616Z,19.63
2022-12-16T16:30:09.546Z,20.37
2022-12-16T16:32:55.234Z,23.50
2022-12-16T16:35:40.622Z,21.20
2022-12-16T16:38:28.212Z,22.97
2022-12-16T16:41:13.704Z,21.60
2022-12-16T16:43:59.267Z,19.33
2022-12-16T16:46:55.415Z,21.27
2022-12-16T16:49:46.939Z,22.83
2022-12-16T16:52:34.681Z,22.60
2022-12-16T16:55:20.718Z,23.90
2022-12-16T16:58:06.335Z,25.10
2022-12-16T17:00:52.130Z,24.47
2022-12-16T17:03:39.808Z,21.00
2022-12-16T17:06:26.063Z,25.73
2022-12-16T17:09:11.681Z,23.30
2022-12-16T17:11:57.556Z,21.67
2022-12-16T17:14:43.366Z,22.93
2022-12-16T17:17:29.055Z,22.67
2022-12-16T17:20:15.970Z,22.60
2022-12-16T17:23:01.498Z,24.40
2022-12-16T17:25:47.576Z,24.20
2022-12-16T17:28:33.382Z,23.87
2022-12-16T17:31:19.331Z,25.13
2022-12-16T17:34:05.023Z,23.50
2022-12-16T17:36:51.810Z,22.67
2022-12-16T17:39:37.297Z,27.77
2022-12-16T17:42:23.365Z,25.67
2022-12-16T17:45:09.005Z,23.33
2022-12-16T17:47:54.622Z,22.03
2022-12-16T17:50:40.137Z,23.40
2022-12-16T17:53:27.045Z,27.53
2022-12-16T17:56:12.542Z,26.13
2022-12-16T17:58:58.550Z,24.13
2022-12-16T18:01:44.146Z,23.33
2022-12-16T18:04:29.977Z,24.77
2022-12-16T18:07:15.898Z,24.57
2022-12-16T18:10:02.642Z,23.87
2022-12-16T18:12:48.964Z,23.80
2022-12-16T18:15:34.586Z,22.30
2022-12-16T18:18:19.873Z,25.77
2022-12-16T18:21:20.080Z,25.00
2022-12-16T18:24:05.579Z,26.53
2022-12-16T18:26:52.274Z,25.43
2022-12-16T18:29:37.986Z,22.83
2022-12-16T18:32:23.929Z,21.93
2022-12-16T18:35:09.819Z,26.17
2022-12-16T18:37:55.333Z,22.73
2022-12-16T18:40:40.699Z,20.77
2022-12-16T18:43:27.500Z,21.07
2022-12-16T18:46:14.154Z,21.53
2022-12-16T18:48:59.759Z,25.13
2022-12-16T18:51:45.194Z,23.73
2022-12-16T18:54:30.765Z,24.77
2022-12-16T18:57:16.494Z,22.93
2022-12-16T19:00:03.684Z,27.40
2022-12-16T19:02:49.097Z,22.97
2022-12-16T19:05:34.870Z,22.13
2022-12-16T19:08:20.372Z,23.73
2022-12-16T19:11:06.110Z,24.07
2022-12-16T19:13:54.018Z,30.47
2022-12-16T19:16:41.091Z,35.03
2022-12-16T19:19:26.910Z,30.33
2022-12-16T19:22:12.528Z,27.53
2022-12-16T19:24:58.060Z,28.57
2022-12-16T19:27:43.843Z,28.87
2022-12-16T19:30:29.734Z,28.87
2022-12-16T19:33:16.346Z,32.53
2022-12-16T19:36:01.940Z,30.70
2022-12-16T19:38:47.327Z,31.83
2022-12-16T19:41:34.083Z,33.43
2022-12-16T19:44:19.822Z,33.43
2022-12-16T19:47:05.295Z,35.77
2022-12-16T19:49:52.425Z,34.27
2022-12-16T19:52:36.603Z,34.57
2022-12-16T19:55:22.481Z,29.07
2022-12-16T19:58:08.295Z,34.90
2022-12-16T20:00:54.755Z,32.43
2022-12-16T20:03:42.577Z,34.13
2022-12-16T20:06:30.356Z,33.87
2022-12-16T20:09:30.372Z,35.13
2022-12-16T20:12:15.952Z,44.50
2022-12-16T20:15:01.571Z,35.10
2022-12-16T20:17:47.190Z,25.47
2022-12-16T20:20:32.937Z,31.40
2022-12-16T20:23:19.774Z,28.27
2022-12-16T20:26:13.049Z,30.60
2022-12-16T20:28:58.596Z,31.80
2022-12-16T20:31:44.232Z,37.77
2022-12-16T20:34:29.850Z,33.73
2022-12-16T20:37:15.362Z,31.47
2022-12-16T20:40:02.263Z,33.37
2022-12-16T20:42:47.803Z,31.50
2022-12-16T20:45:34.401Z,30.00
2022-12-16T20:48:20.271Z,29.87
2022-12-16T20:51:08.768Z,25.63
2022-12-16T20:53:56.465Z,27.57
2022-12-16T20:56:43.478Z,25.23
2022-12-16T20:59:29.078Z,28.83
2022-12-16T21:02:23.052Z,31.13
2022-12-16T21:05:11.279Z,34.80
2022-12-16T21:07:57.288Z,30.87
2022-12-16T21:10:42.661Z,32.40
2022-12-16T21:13:32.297Z,37.30
2022-12-16T21:16:18.833Z,38.37
2022-12-16T21:19:04.154Z,38.03
2022-12-16T21:21:49.496Z,37.20
2022-12-16T21:24:35.379Z,37.83
2022-12-16T21:27:20.848Z,39.73
2022-12-16T21:30:07.891Z,43.93
2022-12-16T21:32:53.755Z,36.83
2022-12-16T21:35:39.629Z,40.37
2022-12-16T21:38:28.136Z,45.47
2022-12-16T21:41:14.115Z,46.43
2022-12-16T21:44:04.764Z,43.10
2022-12-16T21:46:51.853Z,48.20
2022-12-16T21:49:37.371Z,50.93
2022-12-16T21:52:19.469Z,55.47
2022-12-16T21:55:06.069Z,54.40
2022-12-16T21:57:51.620Z,53.07
2022-12-16T22:00:38.687Z,50.67
2022-12-16T22:03:25.635Z,55.00
2022-12-16T22:06:11.286Z,55.67
2022-12-16T22:08:57.103Z,53.07
2022-12-16T22:11:42.756Z,55.93
2022-12-16T22:14:28.263Z,53.23
2022-12-16T22:17:14.002Z,59.50
2022-12-16T22:20:00.796Z,54.07
2022-12-16T22:22:51.416Z,59.77
2022-12-16T22:25:37.656Z,59.97
2022-12-16T22:28:25.321Z,60.17
2022-12-16T22:34:20.887Z,54.57
2022-12-16T22:37:07.795Z,57.50
2022-12-16T22:39:53.582Z,56.33
2022-12-16T22:42:42.119Z,62.50
2022-12-16T22:45:28.581Z,65.00
2022-12-16T22:48:14.565Z,65.10
2022-12-16T22:51:00.079Z,62.13
2022-12-16T22:53:46.824Z,63.63
2022-12-16T22:56:32.107Z,68.00
2022-12-16T22:59:17.575Z,67.47
2022-12-16T23:02:02.957Z,65.60
2022-12-16T23:05:00.157Z,64.70
2022-12-16T23:07:46.344Z,62.87
2022-12-16T23:10:33.166Z,66.53
2022-12-16T23:13:18.935Z,68.20
2022-12-16T23:16:04.551Z,61.20
2022-12-16T23:18:50.313Z,64.00
2022-12-16T23:21:37.401Z,71.83
2022-12-16T23:24:23.858Z,64.80
2022-12-16T23:27:10.533Z,74.57
2022-12-16T23:29:56.822Z,61.37
2022-12-16T23:32:31.348Z,57.73
2022-12-16T23:32:42.841Z,64.33
2022-12-16T23:35:28.927Z,68.10
2022-12-16T23:38:19.480Z,69.93
2022-12-16T23:41:05.421Z,67.87
2022-12-16T23:43:52.234Z,70.07
2022-12-16T23:46:37.728Z,65.10
2022-12-16T23:49:23.519Z,68.80
2022-12-16T23:52:14.217Z,75.87
2022-12-16T23:54:56.133Z,70.53
2022-12-16T23:57:42.026Z,79.07
